sensor_id;sensor_type;location;lat;lon;timestamp;temperature;humidity
18797;DHT22;9526;52.612;13.300;2023-06-22T00:01:00;19.70;99.90
18797;DHT22;9526;52.612;13.300;2023-06-22T00:03:25;19.70;99.90
18797;DHT22;9526;52.612;13.300;2023-06-22T00:05:50;19.70;99.90
18797;DHT22;9526;52.612;13.300;2023-06-22T00:08:14;19.70;99.90
18797;DHT22;9526;52.612;13.300;2023-06-22T00:10:38;19.70;99.90
18797;DHT22;9526;52.612;13.300;2023-06-22T00:13:05;19.60;99.90
18797;DHT22;9526;52.612;13.300;2023-06-22T00:15:29;19.60;99.90
18797;DHT22;9526;52.612;13.300;2023-06-22T00:17:53;19.60;99.90
18797;DHT22;9526;52.612;13.300;2023-06-22T00:20:17;19.50;99.90
18797;DHT22;9526;52.612;13.300;2023-06-22T00:22:41;19.50;99.90
18797;DHT22;9526;52.612;13.300;2023-06-22T00:25:06;19.50;99.90
18797;DHT22;9526;52.612;13.300;2023-06-22T00:27:30;19.40;99.90
18797;DHT22;9526;52.612;13.300;2023-06-22T00:29:55;19.40;99.90
18797;DHT22;9526;52.612;13.300;2023-06-22T00:32:19;19.40;99.90
18797;DHT22;9526;52.612;13.300;2023-06-22T00:34:43;19.40;99.90
18797;DHT22;9526;52.612;13.300;2023-06-22T00:37:07;19.30;99.90
18797;DHT22;9526;52.612;13.300;2023-06-22T00:39:31;19.30;99.90
18797;DHT22;9526;52.612;13.300;2023-06-22T00:41:55;19.30;99.90
18797;DHT22;9526;52.612;13.300;2023-06-22T00:44:19;19.20;99.90
18797;DHT22;9526;52.612;13.300;2023-06-22T00:46:44;19.20;99.90
18797;DHT22;9526;52.612;13.300;2023-06-22T00:49:08;19.10;99.90
18797;DHT22;9526;52.612;13.300;2023-06-22T00:51:32;19.10;99.90
18797;DHT22;9526;52.612;13.300;2023-06-22T00:53:56;19.10;99.90
18797;DHT22;9526;52.612;13.300;2023-06-22T00:56:22;19.10;99.90
18797;DHT22;9526;52.612;13.300;2023-06-22T00:58:47;19.00;99.90
18797;DHT22;9526;52.612;13.300;2023-06-22T01:01:11;19.00;99.90
18797;DHT22;9526;52.612;13.300;2023-06-22T01:03:37;19.00;99.90
18797;DHT22;9526;52.612;13.300;2023-06-22T01:06:07;18.90;99.90
18797;DHT22;9526;52.612;13.300;2023-06-22T01:08:39;18.90;99.90
18797;DHT22;9526;52.612;13.300;2023-06-22T01:11:12;18.90;99.90
18797;DHT22;9526;52.612;13.300;2023-06-22T01:13:52;18.80;99.90
18797;DHT22;9526;52.612;13.300;2023-06-22T01:16:24;18.80;99.90
18797;DHT22;9526;52.612;13.300;2023-06-22T01:18:55;18.80;99.90
18797;DHT22;9526;52.612;13.300;2023-06-22T01:21:24;18.80;99.90
18797;DHT22;9526;52.612;13.300;2023-06-22T01:23:56;18.70;99.90
18797;DHT22;9526;52.612;13.300;2023-06-22T01:26:36;18.70;99.90
18797;DHT22;9526;52.612;13.300;2023-06-22T01:29:04;18.70;99.90
18797;DHT22;9526;52.612;13.300;2023-06-22T01:31:30;18.70;99.90
18797;DHT22;9526;52.612;13.300;2023-06-22T01:33:58;18.60;99.90
18797;DHT22;9526;52.612;13.300;2023-06-22T01:36:26;18.60;99.90
18797;DHT22;9526;52.612;13.300;2023-06-22T01:38:50;18.60;99.90
18797;DHT22;9526;52.612;13.300;2023-06-22T01:41:17;18.60;99.90
18797;DHT22;9526;52.612;13.300;2023-06-22T01:43:41;18.60;99.90
18797;DHT22;9526;52.612;13.300;2023-06-22T01:46:08;18.50;99.90
18797;DHT22;9526;52.612;13.300;2023-06-22T01:48:32;18.50;99.90
18797;DHT22;9526;52.612;13.300;2023-06-22T01:50:57;18.50;99.90
18797;DHT22;9526;52.612;13.300;2023-06-22T01:53:21;18.40;99.90
18797;DHT22;9526;52.612;13.300;2023-06-22T01:55:46;18.40;99.90
18797;DHT22;9526;52.612;13.300;2023-06-22T01:58:10;18.30;99.90
18797;DHT22;9526;52.612;13.300;2023-06-22T02:00:36;18.30;99.90
18797;DHT22;9526;52.612;13.300;2023-06-22T02:03:07;18.30;99.90
18797;DHT22;9526;52.612;13.300;2023-06-22T02:05:36;18.30;99.90
18797;DHT22;9526;52.612;13.300;2023-06-22T02:08:09;18.30;99.90
18797;DHT22;9526;52.612;13.300;2023-06-22T02:10:34;18.30;99.90
18797;DHT22;9526;52.612;13.300;2023-06-22T02:13:01;18.20;99.90
18797;DHT22;9526;52.612;13.300;2023-06-22T02:15:28;18.20;99.90
18797;DHT22;9526;52.612;13.300;2023-06-22T02:17:52;18.20;99.90
18797;DHT22;9526;52.612;13.300;2023-06-22T02:20:18;18.20;99.90
18797;DHT22;9526;52.612;13.300;2023-06-22T02:22:42;18.20;99.90
18797;DHT22;9526;52.612;13.300;2023-06-22T02:25:06;18.20;99.90
18797;DHT22;9526;52.612;13.300;2023-06-22T02:27:30;18.10;99.90
18797;DHT22;9526;52.612;13.300;2023-06-22T02:29:54;18.10;99.90
18797;DHT22;9526;52.612;13.300;2023-06-22T02:32:18;18.10;99.90
18797;DHT22;9526;52.612;13.300;2023-06-22T02:34:42;18.10;99.90
18797;DHT22;9526;52.612;13.300;2023-06-22T02:37:12;18.10;99.90
18797;DHT22;9526;52.612;13.300;2023-06-22T02:39:36;18.10;99.90
18797;DHT22;9526;52.612;13.300;2023-06-22T02:42:02;18.10;99.90
18797;DHT22;9526;52.612;13.300;2023-06-22T02:44:26;18.10;99.90
18797;DHT22;9526;52.612;13.300;2023-06-22T02:46:50;18.10;99.90
18797;DHT22;9526;52.612;13.300;2023-06-22T02:49:13;18.10;99.90
18797;DHT22;9526;52.612;13.300;2023-06-22T02:51:39;18.10;99.90
18797;DHT22;9526;52.612;13.300;2023-06-22T02:54:07;18.10;99.90
18797;DHT22;9526;52.612;13.300;2023-06-22T02:56:31;18.10;99.90
18797;DHT22;9526;52.612;13.300;2023-06-22T02:58:56;18.10;99.90
18797;DHT22;9526;52.612;13.300;2023-06-22T03:01:27;18.10;99.90
18797;DHT22;9526;52.612;13.300;2023-06-22T03:03:53;18.10;99.90
18797;DHT22;9526;52.612;13.300;2023-06-22T03:06:17;18.20;99.90
18797;DHT22;9526;52.612;13.300;2023-06-22T03:08:45;18.20;99.90
18797;DHT22;9526;52.612;13.300;2023-06-22T03:11:11;18.20;99.90
18797;DHT22;9526;52.612;13.300;2023-06-22T03:13:35;18.20;99.90
18797;DHT22;9526;52.612;13.300;2023-06-22T03:16:01;18.20;99.90
18797;DHT22;9526;52.612;13.300;2023-06-22T03:18:25;18.20;99.90
18797;DHT22;9526;52.612;13.300;2023-06-22T03:20:49;18.30;99.90
18797;DHT22;9526;52.612;13.300;2023-06-22T03:23:12;18.30;99.90
18797;DHT22;9526;52.612;13.300;2023-06-22T03:25:36;18.30;99.90
18797;DHT22;9526;52.612;13.300;2023-06-22T03:28:01;18.30;99.90
18797;DHT22;9526;52.612;13.300;2023-06-22T03:30:26;18.30;99.90
18797;DHT22;9526;52.612;13.300;2023-06-22T03:32:50;18.30;99.90
18797;DHT22;9526;52.612;13.300;2023-06-22T03:35:14;18.40;99.90
18797;DHT22;9526;52.612;13.300;2023-06-22T03:37:38;18.30;99.90
18797;DHT22;9526;52.612;13.300;2023-06-22T03:40:02;18.40;99.90
18797;DHT22;9526;52.612;13.300;2023-06-22T03:42:29;18.30;99.90
18797;DHT22;9526;52.612;13.300;2023-06-22T03:44:54;18.40;99.90
18797;DHT22;9526;52.612;13.300;2023-06-22T03:47:18;18.40;99.90
18797;DHT22;9526;52.612;13.300;2023-06-22T03:49:41;18.40;99.90
18797;DHT22;9526;52.612;13.300;2023-06-22T03:52:06;18.50;99.90
18797;DHT22;9526;52.612;13.300;2023-06-22T03:54:30;18.50;99.90
18797;DHT22;9526;52.612;13.300;2023-06-22T03:56:54;18.50;99.90
18797;DHT22;9526;52.612;13.300;2023-06-22T03:59:18;18.60;99.90
18797;DHT22;9526;52.612;13.300;2023-06-22T04:01:43;18.60;99.90
18797;DHT22;9526;52.612;13.300;2023-06-22T04:04:06;18.70;99.90
18797;DHT22;9526;52.612;13.300;2023-06-22T04:06:30;18.70;99.90
18797;DHT22;9526;52.612;13.300;2023-06-22T04:08:56;18.70;99.90
18797;DHT22;9526;52.612;13.300;2023-06-22T04:11:19;18.70;99.90
18797;DHT22;9526;52.612;13.300;2023-06-22T04:13:43;18.80;99.90
18797;DHT22;9526;52.612;13.300;2023-06-22T04:16:07;18.80;99.90
18797;DHT22;9526;52.612;13.300;2023-06-22T04:18:32;18.90;99.90
18797;DHT22;9526;52.612;13.300;2023-06-22T04:20:56;18.90;99.90
18797;DHT22;9526;52.612;13.300;2023-06-22T04:23:19;19.00;99.90
18797;DHT22;9526;52.612;13.300;2023-06-22T04:25:43;19.00;99.90
18797;DHT22;9526;52.612;13.300;2023-06-22T04:28:07;19.10;99.90
18797;DHT22;9526;52.612;13.300;2023-06-22T04:30:34;19.10;99.90
18797;DHT22;9526;52.612;13.300;2023-06-22T04:32:58;19.10;99.90
18797;DHT22;9526;52.612;13.300;2023-06-22T04:35:24;19.20;99.90
18797;DHT22;9526;52.612;13.300;2023-06-22T04:37:48;19.20;99.90
18797;DHT22;9526;52.612;13.300;2023-06-22T04:40:11;19.30;99.90
18797;DHT22;9526;52.612;13.300;2023-06-22T04:42:39;19.40;99.90
18797;DHT22;9526;52.612;13.300;2023-06-22T04:45:03;19.40;99.90
18797;DHT22;9526;52.612;13.300;2023-06-22T04:47:27;19.60;99.90
18797;DHT22;9526;52.612;13.300;2023-06-22T04:49:51;19.60;99.90
18797;DHT22;9526;52.612;13.300;2023-06-22T04:52:16;19.70;99.90
18797;DHT22;9526;52.612;13.300;2023-06-22T04:54:42;19.80;99.90
18797;DHT22;9526;52.612;13.300;2023-06-22T04:57:09;19.80;99.90
18797;DHT22;9526;52.612;13.300;2023-06-22T04:59:33;20.00;99.90
18797;DHT22;9526;52.612;13.300;2023-06-22T05:01:57;20.00;99.90
18797;DHT22;9526;52.612;13.300;2023-06-22T05:04:21;20.10;99.90
18797;DHT22;9526;52.612;13.300;2023-06-22T05:06:46;20.20;99.90
18797;DHT22;9526;52.612;13.300;2023-06-22T05:09:11;20.30;99.90
18797;DHT22;9526;52.612;13.300;2023-06-22T05:11:35;20.40;99.90
18797;DHT22;9526;52.612;13.300;2023-06-22T05:13:59;20.60;99.90
18797;DHT22;9526;52.612;13.300;2023-06-22T05:16:24;20.70;99.90
18797;DHT22;9526;52.612;13.300;2023-06-22T05:18:48;20.90;99.90
18797;DHT22;9526;52.612;13.300;2023-06-22T05:21:12;21.00;99.90
18797;DHT22;9526;52.612;13.300;2023-06-22T05:23:36;21.10;99.90
18797;DHT22;9526;52.612;13.300;2023-06-22T05:26:01;21.20;99.90
18797;DHT22;9526;52.612;13.300;2023-06-22T05:28:25;21.30;99.90
18797;DHT22;9526;52.612;13.300;2023-06-22T05:30:49;21.30;99.90
18797;DHT22;9526;52.612;13.300;2023-06-22T05:33:12;21.40;99.90
18797;DHT22;9526;52.612;13.300;2023-06-22T05:35:36;21.40;99.90
18797;DHT22;9526;52.612;13.300;2023-06-22T05:38:00;21.40;99.90
18797;DHT22;9526;52.612;13.300;2023-06-22T05:40:24;21.50;99.90
18797;DHT22;9526;52.612;13.300;2023-06-22T05:42:49;21.50;99.90
18797;DHT22;9526;52.612;13.300;2023-06-22T05:45:13;21.60;99.90
18797;DHT22;9526;52.612;13.300;2023-06-22T05:47:36;21.80;99.90
18797;DHT22;9526;52.612;13.300;2023-06-22T05:50:00;21.70;99.90
18797;DHT22;9526;52.612;13.300;2023-06-22T05:52:28;21.90;99.90
18797;DHT22;9526;52.612;13.300;2023-06-22T05:54:52;22.00;99.90
18797;DHT22;9526;52.612;13.300;2023-06-22T05:57:15;22.10;99.90
18797;DHT22;9526;52.612;13.300;2023-06-22T05:59:40;22.30;99.90
18797;DHT22;9526;52.612;13.300;2023-06-22T06:02:05;22.50;99.90
18797;DHT22;9526;52.612;13.300;2023-06-22T06:04:29;22.70;99.90
18797;DHT22;9526;52.612;13.300;2023-06-22T06:06:52;23.10;99.90
18797;DHT22;9526;52.612;13.300;2023-06-22T06:09:16;23.50;99.90
18797;DHT22;9526;52.612;13.300;2023-06-22T06:11:40;23.90;99.90
18797;DHT22;9526;52.612;13.300;2023-06-22T06:14:04;24.20;99.90
18797;DHT22;9526;52.612;13.300;2023-06-22T06:16:29;24.40;99.90
18797;DHT22;9526;52.612;13.300;2023-06-22T06:18:53;24.30;99.90
18797;DHT22;9526;52.612;13.300;2023-06-22T06:21:18;24.40;99.90
18797;DHT22;9526;52.612;13.300;2023-06-22T06:23:41;24.40;99.90
18797;DHT22;9526;52.612;13.300;2023-06-22T06:26:05;24.80;99.90
18797;DHT22;9526;52.612;13.300;2023-06-22T06:28:29;25.00;99.90
18797;DHT22;9526;52.612;13.300;2023-06-22T06:30:53;25.30;99.90
18797;DHT22;9526;52.612;13.300;2023-06-22T06:33:18;25.10;99.90
18797;DHT22;9526;52.612;13.300;2023-06-22T06:35:46;25.30;99.90
18797;DHT22;9526;52.612;13.300;2023-06-22T06:38:09;25.60;99.90
18797;DHT22;9526;52.612;13.300;2023-06-22T06:40:33;25.90;99.90
18797;DHT22;9526;52.612;13.300;2023-06-22T06:42:57;26.40;99.90
18797;DHT22;9526;52.612;13.300;2023-06-22T06:45:23;26.60;99.90
18797;DHT22;9526;52.612;13.300;2023-06-22T06:47:47;26.90;99.90
18797;DHT22;9526;52.612;13.300;2023-06-22T06:50:12;27.40;99.90
18797;DHT22;9526;52.612;13.300;2023-06-22T06:52:36;27.60;99.90
18797;DHT22;9526;52.612;13.300;2023-06-22T06:55:00;27.80;99.90
18797;DHT22;9526;52.612;13.300;2023-06-22T06:57:26;27.90;99.90
18797;DHT22;9526;52.612;13.300;2023-06-22T06:59:51;27.80;99.90
18797;DHT22;9526;52.612;13.300;2023-06-22T07:02:14;27.60;99.90
18797;DHT22;9526;52.612;13.300;2023-06-22T07:04:40;27.30;99.90
18797;DHT22;9526;52.612;13.300;2023-06-22T07:07:05;27.50;99.90
18797;DHT22;9526;52.612;13.300;2023-06-22T07:09:29;27.60;99.90
18797;DHT22;9526;52.612;13.300;2023-06-22T07:11:53;27.60;99.90
18797;DHT22;9526;52.612;13.300;2023-06-22T07:14:16;27.50;99.90
18797;DHT22;9526;52.612;13.300;2023-06-22T07:16:40;27.50;99.90
18797;DHT22;9526;52.612;13.300;2023-06-22T07:19:04;27.40;99.90
18797;DHT22;9526;52.612;13.300;2023-06-22T07:21:27;27.10;99.90
18797;DHT22;9526;52.612;13.300;2023-06-22T07:23:52;27.00;99.90
18797;DHT22;9526;52.612;13.300;2023-06-22T07:26:16;27.00;99.90
18797;DHT22;9526;52.612;13.300;2023-06-22T07:28:40;26.80;99.90
18797;DHT22;9526;52.612;13.300;2023-06-22T07:31:04;26.60;99.90
18797;DHT22;9526;52.612;13.300;2023-06-22T07:33:28;26.40;99.90
18797;DHT22;9526;52.612;13.300;2023-06-22T07:35:51;26.30;99.90
18797;DHT22;9526;52.612;13.300;2023-06-22T07:38:15;26.10;99.90
18797;DHT22;9526;52.612;13.300;2023-06-22T07:40:40;26.10;99.90
18797;DHT22;9526;52.612;13.300;2023-06-22T07:43:04;26.00;99.90
18797;DHT22;9526;52.612;13.300;2023-06-22T07:45:28;26.00;99.90
18797;DHT22;9526;52.612;13.300;2023-06-22T07:47:51;25.90;99.90
18797;DHT22;9526;52.612;13.300;2023-06-22T07:50:15;25.80;99.90
18797;DHT22;9526;52.612;13.300;2023-06-22T07:52:39;25.60;99.90
18797;DHT22;9526;52.612;13.300;2023-06-22T07:55:03;25.40;99.90
18797;DHT22;9526;52.612;13.300;2023-06-22T07:57:29;25.50;99.90
18797;DHT22;9526;52.612;13.300;2023-06-22T07:59:56;25.70;99.90
18797;DHT22;9526;52.612;13.300;2023-06-22T08:02:20;25.50;99.90
18797;DHT22;9526;52.612;13.300;2023-06-22T08:04:44;25.40;99.90
18797;DHT22;9526;52.612;13.300;2023-06-22T08:07:07;25.60;99.90
18797;DHT22;9526;52.612;13.300;2023-06-22T08:09:32;25.90;99.90
18797;DHT22;9526;52.612;13.300;2023-06-22T08:11:56;25.90;99.90
18797;DHT22;9526;52.612;13.300;2023-06-22T08:14:21;25.80;99.90
18797;DHT22;9526;52.612;13.300;2023-06-22T08:16:45;25.90;99.90
18797;DHT22;9526;52.612;13.300;2023-06-22T08:19:09;25.80;99.90
18797;DHT22;9526;52.612;13.300;2023-06-22T08:21:32;25.80;99.90
18797;DHT22;9526;52.612;13.300;2023-06-22T08:23:56;25.80;99.90
18797;DHT22;9526;52.612;13.300;2023-06-22T08:26:20;26.00;99.90
18797;DHT22;9526;52.612;13.300;2023-06-22T08:28:43;26.20;99.90
18797;DHT22;9526;52.612;13.300;2023-06-22T08:31:09;26.40;99.90
18797;DHT22;9526;52.612;13.300;2023-06-22T08:33:34;26.50;99.90
18797;DHT22;9526;52.612;13.300;2023-06-22T08:35:58;26.70;99.90
18797;DHT22;9526;52.612;13.300;2023-06-22T08:38:22;26.80;99.90
18797;DHT22;9526;52.612;13.300;2023-06-22T08:40:46;26.60;99.90
18797;DHT22;9526;52.612;13.300;2023-06-22T08:43:10;26.50;99.90
18797;DHT22;9526;52.612;13.300;2023-06-22T08:45:34;26.70;99.90
18797;DHT22;9526;52.612;13.300;2023-06-22T08:48:00;26.90;99.90
18797;DHT22;9526;52.612;13.300;2023-06-22T08:50:23;26.90;99.90
18797;DHT22;9526;52.612;13.300;2023-06-22T08:52:47;26.80;99.90
18797;DHT22;9526;52.612;13.300;2023-06-22T08:55:11;26.80;99.90
18797;DHT22;9526;52.612;13.300;2023-06-22T08:57:36;26.90;99.90
18797;DHT22;9526;52.612;13.300;2023-06-22T09:00:01;27.10;99.90
18797;DHT22;9526;52.612;13.300;2023-06-22T09:02:27;27.00;99.90
18797;DHT22;9526;52.612;13.300;2023-06-22T09:04:56;27.10;99.90
18797;DHT22;9526;52.612;13.300;2023-06-22T09:07:20;27.20;99.90
18797;DHT22;9526;52.612;13.300;2023-06-22T09:09:45;27.30;99.90
18797;DHT22;9526;52.612;13.300;2023-06-22T09:12:10;27.50;99.90
18797;DHT22;9526;52.612;13.300;2023-06-22T09:14:33;27.70;99.90
18797;DHT22;9526;52.612;13.300;2023-06-22T09:16:57;27.50;99.40
18797;DHT22;9526;52.612;13.300;2023-06-22T09:19:21;27.70;99.90
18797;DHT22;9526;52.612;13.300;2023-06-22T09:21:46;27.80;99.90
18797;DHT22;9526;52.612;13.300;2023-06-22T09:24:10;27.80;99.70
18797;DHT22;9526;52.612;13.300;2023-06-22T09:26:34;27.80;99.90
18797;DHT22;9526;52.612;13.300;2023-06-22T09:28:58;27.80;99.80
18797;DHT22;9526;52.612;13.300;2023-06-22T09:31:22;27.70;98.50
18797;DHT22;9526;52.612;13.300;2023-06-22T09:33:48;27.60;97.20
18797;DHT22;9526;52.612;13.300;2023-06-22T09:36:11;27.70;99.70
18797;DHT22;9526;52.612;13.300;2023-06-22T09:38:36;27.80;98.60
18797;DHT22;9526;52.612;13.300;2023-06-22T09:41:00;28.00;99.80
18797;DHT22;9526;52.612;13.300;2023-06-22T09:43:24;28.20;98.20
18797;DHT22;9526;52.612;13.300;2023-06-22T09:45:48;28.20;98.70
18797;DHT22;9526;52.612;13.300;2023-06-22T09:48:11;27.90;98.00
18797;DHT22;9526;52.612;13.300;2023-06-22T09:50:35;28.00;96.60
18797;DHT22;9526;52.612;13.300;2023-06-22T09:52:59;27.90;96.30
18797;DHT22;9526;52.612;13.300;2023-06-22T09:55:24;27.60;96.60
18797;DHT22;9526;52.612;13.300;2023-06-22T09:57:48;27.80;97.60
18797;DHT22;9526;52.612;13.300;2023-06-22T10:00:13;27.60;97.20
18797;DHT22;9526;52.612;13.300;2023-06-22T10:02:38;27.70;98.60
18797;DHT22;9526;52.612;13.300;2023-06-22T10:05:02;27.80;98.00
18797;DHT22;9526;52.612;13.300;2023-06-22T10:07:26;27.80;98.50
18797;DHT22;9526;52.612;13.300;2023-06-22T10:09:50;28.00;98.70
18797;DHT22;9526;52.612;13.300;2023-06-22T10:12:15;28.20;99.90
18797;DHT22;9526;52.612;13.300;2023-06-22T10:14:39;28.50;98.40
18797;DHT22;9526;52.612;13.300;2023-06-22T10:17:03;28.70;97.50
18797;DHT22;9526;52.612;13.300;2023-06-22T10:19:29;29.00;97.70
18797;DHT22;9526;52.612;13.300;2023-06-22T10:21:52;29.00;97.20
18797;DHT22;9526;52.612;13.300;2023-06-22T10:24:17;29.10;98.60
18797;DHT22;9526;52.612;13.300;2023-06-22T10:26:41;29.20;96.20
18797;DHT22;9526;52.612;13.300;2023-06-22T10:29:06;29.10;96.30
18797;DHT22;9526;52.612;13.300;2023-06-22T10:31:38;29.10;98.40
18797;DHT22;9526;52.612;13.300;2023-06-22T10:34:02;29.30;97.00
18797;DHT22;9526;52.612;13.300;2023-06-22T10:36:25;29.50;96.90
18797;DHT22;9526;52.612;13.300;2023-06-22T10:38:49;29.50;96.80
18797;DHT22;9526;52.612;13.300;2023-06-22T10:41:15;29.70;99.40
18797;DHT22;9526;52.612;13.300;2023-06-22T10:43:39;29.90;98.80
18797;DHT22;9526;52.612;13.300;2023-06-22T10:46:04;29.70;96.30
18797;DHT22;9526;52.612;13.300;2023-06-22T10:48:27;29.90;96.50
18797;DHT22;9526;52.612;13.300;2023-06-22T10:50:51;29.90;94.20
18797;DHT22;9526;52.612;13.300;2023-06-22T10:53:16;29.80;98.40
18797;DHT22;9526;52.612;13.300;2023-06-22T10:55:40;29.70;94.60
18797;DHT22;9526;52.612;13.300;2023-06-22T10:58:18;29.80;95.90
18797;DHT22;9526;52.612;13.300;2023-06-22T11:00:42;30.00;96.30
18797;DHT22;9526;52.612;13.300;2023-06-22T11:03:07;30.00;94.50
18797;DHT22;9526;52.612;13.300;2023-06-22T11:05:33;29.50;93.60
18797;DHT22;9526;52.612;13.300;2023-06-22T11:07:57;29.60;94.00
18797;DHT22;9526;52.612;13.300;2023-06-22T11:10:21;29.80;94.40
18797;DHT22;9526;52.612;13.300;2023-06-22T11:12:45;30.00;94.50
18797;DHT22;9526;52.612;13.300;2023-06-22T11:15:09;29.70;94.10
18797;DHT22;9526;52.612;13.300;2023-06-22T11:17:32;30.20;95.60
18797;DHT22;9526;52.612;13.300;2023-06-22T11:19:58;30.70;96.80
18797;DHT22;9526;52.612;13.300;2023-06-22T11:22:22;30.40;93.20
18797;DHT22;9526;52.612;13.300;2023-06-22T11:24:46;30.60;93.70
18797;DHT22;9526;52.612;13.300;2023-06-22T11:27:09;30.40;94.30
18797;DHT22;9526;52.612;13.300;2023-06-22T11:29:33;30.70;96.00
18797;DHT22;9526;52.612;13.300;2023-06-22T11:31:59;30.90;94.80
18797;DHT22;9526;52.612;13.300;2023-06-22T11:34:23;30.70;92.40
18797;DHT22;9526;52.612;13.300;2023-06-22T11:36:48;30.70;93.00
18797;DHT22;9526;52.612;13.300;2023-06-22T11:39:12;30.80;92.30
18797;DHT22;9526;52.612;13.300;2023-06-22T11:41:37;31.10;92.70
18797;DHT22;9526;52.612;13.300;2023-06-22T11:44:00;31.20;92.50
18797;DHT22;9526;52.612;13.300;2023-06-22T11:46:26;31.20;93.90
18797;DHT22;9526;52.612;13.300;2023-06-22T11:48:50;31.00;91.00
18797;DHT22;9526;52.612;13.300;2023-06-22T11:51:13;31.10;90.70
18797;DHT22;9526;52.612;13.300;2023-06-22T11:53:39;31.00;92.00
18797;DHT22;9526;52.612;13.300;2023-06-22T11:56:02;30.90;89.40
18797;DHT22;9526;52.612;13.300;2023-06-22T11:58:27;30.70;90.80
18797;DHT22;9526;52.612;13.300;2023-06-22T12:00:51;31.10;93.60
18797;DHT22;9526;52.612;13.300;2023-06-22T12:03:15;31.90;92.10
18797;DHT22;9526;52.612;13.300;2023-06-22T12:05:39;32.10;92.60
18797;DHT22;9526;52.612;13.300;2023-06-22T12:08:06;32.10;90.60
18797;DHT22;9526;52.612;13.300;2023-06-22T12:10:33;31.80;91.50
18797;DHT22;9526;52.612;13.300;2023-06-22T12:12:57;31.90;90.40
18797;DHT22;9526;52.612;13.300;2023-06-22T12:15:22;31.40;88.80
18797;DHT22;9526;52.612;13.300;2023-06-22T12:17:45;31.50;90.70
18797;DHT22;9526;52.612;13.300;2023-06-22T12:20:10;31.60;91.30
18797;DHT22;9526;52.612;13.300;2023-06-22T12:22:35;31.70;87.70
18797;DHT22;9526;52.612;13.300;2023-06-22T12:25:00;31.30;90.30
18797;DHT22;9526;52.612;13.300;2023-06-22T12:27:25;31.50;88.50
18797;DHT22;9526;52.612;13.300;2023-06-22T12:29:49;31.70;90.90
18797;DHT22;9526;52.612;13.300;2023-06-22T12:32:13;31.60;89.80
18797;DHT22;9526;52.612;13.300;2023-06-22T12:34:37;32.00;89.20
18797;DHT22;9526;52.612;13.300;2023-06-22T12:37:01;31.90;90.10
18797;DHT22;9526;52.612;13.300;2023-06-22T12:39:24;31.90;88.10
18797;DHT22;9526;52.612;13.300;2023-06-22T12:41:48;32.00;88.80
18797;DHT22;9526;52.612;13.300;2023-06-22T12:44:13;32.70;92.50
18797;DHT22;9526;52.612;13.300;2023-06-22T12:46:37;32.40;88.30
18797;DHT22;9526;52.612;13.300;2023-06-22T12:49:00;31.90;87.40
18797;DHT22;9526;52.612;13.300;2023-06-22T12:51:25;31.50;89.70
18797;DHT22;9526;52.612;13.300;2023-06-22T12:53:49;31.80;88.80
18797;DHT22;9526;52.612;13.300;2023-06-22T12:56:13;31.60;86.40
18797;DHT22;9526;52.612;13.300;2023-06-22T12:58:37;31.70;87.20
18797;DHT22;9526;52.612;13.300;2023-06-22T13:01:02;31.50;88.30
18797;DHT22;9526;52.612;13.300;2023-06-22T13:03:26;31.30;90.70
18797;DHT22;9526;52.612;13.300;2023-06-22T13:05:49;31.60;91.80
18797;DHT22;9526;52.612;13.300;2023-06-22T13:08:13;32.10;86.90
18797;DHT22;9526;52.612;13.300;2023-06-22T13:10:37;32.20;86.90
18797;DHT22;9526;52.612;13.300;2023-06-22T13:13:01;32.10;85.90
18797;DHT22;9526;52.612;13.300;2023-06-22T13:15:24;32.00;87.90
18797;DHT22;9526;52.612;13.300;2023-06-22T13:17:50;32.00;87.10
18797;DHT22;9526;52.612;13.300;2023-06-22T13:20:14;31.90;86.90
18797;DHT22;9526;52.612;13.300;2023-06-22T13:22:38;31.80;90.10
18797;DHT22;9526;52.612;13.300;2023-06-22T13:25:05;31.60;86.60
18797;DHT22;9526;52.612;13.300;2023-06-22T13:27:34;31.40;87.30
18797;DHT22;9526;52.612;13.300;2023-06-22T13:29:57;31.90;87.00
18797;DHT22;9526;52.612;13.300;2023-06-22T13:32:21;31.60;86.10
18797;DHT22;9526;52.612;13.300;2023-06-22T13:34:46;31.90;90.20
18797;DHT22;9526;52.612;13.300;2023-06-22T13:37:10;32.10;88.80
18797;DHT22;9526;52.612;13.300;2023-06-22T13:39:34;31.90;87.20
18797;DHT22;9526;52.612;13.300;2023-06-22T13:41:58;32.20;88.60
18797;DHT22;9526;52.612;13.300;2023-06-22T13:44:21;32.40;87.70
18797;DHT22;9526;52.612;13.300;2023-06-22T13:46:45;32.10;88.20
18797;DHT22;9526;52.612;13.300;2023-06-22T13:49:09;32.30;89.50
18797;DHT22;9526;52.612;13.300;2023-06-22T13:51:34;32.40;85.60
18797;DHT22;9526;52.612;13.300;2023-06-22T13:53:59;32.40;86.90
18797;DHT22;9526;52.612;13.300;2023-06-22T13:56:22;32.60;86.00
18797;DHT22;9526;52.612;13.300;2023-06-22T13:58:46;32.70;84.00
18797;DHT22;9526;52.612;13.300;2023-06-22T14:01:10;32.10;85.20
18797;DHT22;9526;52.612;13.300;2023-06-22T14:03:38;32.20;88.20
18797;DHT22;9526;52.612;13.300;2023-06-22T14:06:02;32.30;84.70
18797;DHT22;9526;52.612;13.300;2023-06-22T14:08:27;32.30;89.50
18797;DHT22;9526;52.612;13.300;2023-06-22T14:10:54;32.10;85.00
18797;DHT22;9526;52.612;13.300;2023-06-22T14:13:18;31.80;85.40
18797;DHT22;9526;52.612;13.300;2023-06-22T14:15:41;31.80;89.50
18797;DHT22;9526;52.612;13.300;2023-06-22T14:18:06;31.80;83.90
18797;DHT22;9526;52.612;13.300;2023-06-22T14:20:30;31.40;87.00
18797;DHT22;9526;52.612;13.300;2023-06-22T14:22:54;31.40;87.60
18797;DHT22;9526;52.612;13.300;2023-06-22T14:25:19;31.40;85.70
18797;DHT22;9526;52.612;13.300;2023-06-22T14:27:43;31.70;86.30
18797;DHT22;9526;52.612;13.300;2023-06-22T14:30:08;31.50;85.10
18797;DHT22;9526;52.612;13.300;2023-06-22T14:32:32;31.40;86.80
18797;DHT22;9526;52.612;13.300;2023-06-22T14:34:56;31.60;87.10
18797;DHT22;9526;52.612;13.300;2023-06-22T14:37:19;31.60;86.40
18797;DHT22;9526;52.612;13.300;2023-06-22T14:39:43;31.50;88.00
18797;DHT22;9526;52.612;13.300;2023-06-22T14:42:08;31.40;85.70
18797;DHT22;9526;52.612;13.300;2023-06-22T14:44:32;31.70;86.70
18797;DHT22;9526;52.612;13.300;2023-06-22T14:46:56;31.70;85.20
18797;DHT22;9526;52.612;13.300;2023-06-22T14:49:19;31.30;85.50
18797;DHT22;9526;52.612;13.300;2023-06-22T14:51:43;31.50;88.50
18797;DHT22;9526;52.612;13.300;2023-06-22T14:54:07;31.60;86.90
18797;DHT22;9526;52.612;13.300;2023-06-22T14:56:31;31.60;85.40
18797;DHT22;9526;52.612;13.300;2023-06-22T14:58:57;31.60;85.90
18797;DHT22;9526;52.612;13.300;2023-06-22T15:01:21;31.40;86.10
18797;DHT22;9526;52.612;13.300;2023-06-22T15:03:45;31.10;87.50
18797;DHT22;9526;52.612;13.300;2023-06-22T15:06:09;31.10;89.10
18797;DHT22;9526;52.612;13.300;2023-06-22T15:08:33;30.90;87.50
18797;DHT22;9526;52.612;13.300;2023-06-22T15:10:59;30.80;87.40
18797;DHT22;9526;52.612;13.300;2023-06-22T15:13:23;30.70;87.00